sensor_id;sensor_type;location;lat;lon;timestamp;noise_LAeq;noise_LA_min;noise_LA_max;noise_LA01;noise_LA95
50333;Laerm;36239;48.132;-1.210;2023-04-25T00:01:32;38.52;33.90;53.64;;
50333;Laerm;36239;48.132;-1.210;2023-04-25T00:04:02;41.39;33.90;46.43;;
50333;Laerm;36239;48.132;-1.210;2023-04-25T00:06:28;38.61;32.93;41.89;;
50333;Laerm;36239;48.132;-1.210;2023-04-25T00:08:55;38.29;32.93;43.19;;
50333;Laerm;36239;48.132;-1.210;2023-04-25T00:11:22;38.19;33.90;44.39;;
50333;Laerm;36239;48.132;-1.210;2023-04-25T00:13:48;38.18;33.90;41.30;;
50333;Laerm;36239;48.132;-1.210;2023-04-25T00:16:16;38.75;33.90;42.29;;
50333;Laerm;36239;48.132;-1.210;2023-04-25T00:18:42;38.40;32.93;46.23;;
50333;Laerm;36239;48.132;-1.210;2023-04-25T00:21:08;39.57;34.69;43.29;;
50333;Laerm;36239;48.132;-1.210;2023-04-25T00:23:34;39.07;34.69;44.87;;
50333;Laerm;36239;48.132;-1.210;2023-04-25T00:26:02;40.20;34.31;44.03;;
50333;Laerm;36239;48.132;-1.210;2023-04-25T00:28:28;40.32;34.69;46.73;;
50333;Laerm;36239;48.132;-1.210;2023-04-25T00:30:54;39.22;34.69;42.93;;
50333;Laerm;36239;48.132;-1.210;2023-04-25T00:33:20;39.94;35.04;43.90;;
50333;Laerm;36239;48.132;-1.210;2023-04-25T00:35:46;39.83;34.31;43.77;;
50333;Laerm;36239;48.132;-1.210;2023-04-25T00:38:12;39.24;33.90;48.28;;
50333;Laerm;36239;48.132;-1.210;2023-04-25T00:40:38;38.88;33.90;42.41;;
50333;Laerm;36239;48.132;-1.210;2023-04-25T00:43:04;38.90;33.90;43.19;;
50333;Laerm;36239;48.132;-1.210;2023-04-25T00:45:31;39.08;33.44;44.62;;
50333;Laerm;36239;48.132;-1.210;2023-04-25T00:47:57;38.71;34.31;42.88;;
50333;Laerm;36239;48.132;-1.210;2023-04-25T00:50:23;38.97;34.31;43.29;;
50333;Laerm;36239;48.132;-1.210;2023-04-25T00:52:49;38.14;33.44;45.27;;
50333;Laerm;36239;48.132;-1.210;2023-04-25T00:55:15;38.12;32.93;42.76;;
50333;Laerm;36239;48.132;-1.210;2023-04-25T00:57:42;38.51;34.31;42.71;;
50333;Laerm;36239;48.132;-1.210;2023-04-25T01:00:08;37.56;32.35;41.68;;
50333;Laerm;36239;48.132;-1.210;2023-04-25T01:02:39;37.91;32.93;41.89;;
50333;Laerm;36239;48.132;-1.210;2023-04-25T01:05:06;37.82;32.93;43.19;;
50333;Laerm;36239;48.132;-1.210;2023-04-25T01:07:32;37.74;33.44;43.49;;
50333;Laerm;36239;48.132;-1.210;2023-04-25T01:09:58;37.82;32.93;46.93;;
50333;Laerm;36239;48.132;-1.210;2023-04-25T01:12:24;37.47;32.93;41.89;;
50333;Laerm;36239;48.132;-1.210;2023-04-25T01:14:50;37.60;33.44;40.53;;
50333;Laerm;36239;48.132;-1.210;2023-04-25T01:17:17;38.64;32.93;46.23;;
50333;Laerm;36239;48.132;-1.210;2023-04-25T01:19:43;38.01;33.90;45.77;;
50333;Laerm;36239;48.132;-1.210;2023-04-25T01:22:10;38.07;33.44;43.39;;
50333;Laerm;36239;48.132;-1.210;2023-04-25T01:24:36;38.32;33.90;42.47;;
50333;Laerm;36239;48.132;-1.210;2023-04-25T01:27:02;38.69;33.90;42.47;;
50333;Laerm;36239;48.132;-1.210;2023-04-25T01:29:29;38.36;34.31;41.96;;
50333;Laerm;36239;48.132;-1.210;2023-04-25T01:31:55;38.88;34.31;42.71;;
50333;Laerm;36239;48.132;-1.210;2023-04-25T01:34:21;38.86;34.31;43.24;;
50333;Laerm;36239;48.132;-1.210;2023-04-25T01:36:48;38.62;34.69;43.54;;
50333;Laerm;36239;48.132;-1.210;2023-04-25T01:39:15;39.33;34.69;44.65;;
50333;Laerm;36239;48.132;-1.210;2023-04-25T01:41:41;39.11;34.69;43.63;;
50333;Laerm;36239;48.132;-1.210;2023-04-25T01:44:08;38.66;34.31;42.35;;
50333;Laerm;36239;48.132;-1.210;2023-04-25T01:46:34;39.45;34.31;43.86;;
50333;Laerm;36239;48.132;-1.210;2023-04-25T01:49:00;38.97;34.69;45.04;;
50333;Laerm;36239;48.132;-1.210;2023-04-25T01:51:26;38.32;32.93;49.94;;
50333;Laerm;36239;48.132;-1.210;2023-04-25T01:53:52;38.41;34.31;42.93;;
50333;Laerm;36239;48.132;-1.210;2023-04-25T01:56:19;38.75;34.31;43.86;;
50333;Laerm;36239;48.132;-1.210;2023-04-25T01:58:46;39.54;35.04;45.07;;
50333;Laerm;36239;48.132;-1.210;2023-04-25T02:01:12;39.69;35.36;45.57;;
50333;Laerm;36239;48.132;-1.210;2023-04-25T02:03:38;38.90;33.90;42.59;;
50333;Laerm;36239;48.132;-1.210;2023-04-25T02:06:04;39.86;35.36;44.23;;
50333;Laerm;36239;48.132;-1.210;2023-04-25T02:08:30;40.15;36.45;43.49;;
50333;Laerm;36239;48.132;-1.210;2023-04-25T02:10:57;41.40;36.91;45.27;;
50333;Laerm;36239;48.132;-1.210;2023-04-25T02:13:23;40.65;36.10;49.38;;
50333;Laerm;36239;48.132;-1.210;2023-04-25T02:15:49;39.99;35.94;44.79;;
50333;Laerm;36239;48.132;-1.210;2023-04-25T02:18:15;39.19;34.69;43.77;;
50333;Laerm;36239;48.132;-1.210;2023-04-25T02:20:45;39.47;35.36;43.86;;
50333;Laerm;36239;48.132;-1.210;2023-04-25T02:23:11;39.76;35.94;43.04;;
50333;Laerm;36239;48.132;-1.210;2023-04-25T02:25:37;39.85;35.94;47.55;;
50333;Laerm;36239;48.132;-1.210;2023-04-25T02:28:03;39.27;35.04;42.35;;
50333;Laerm;36239;48.132;-1.210;2023-04-25T02:30:29;39.53;35.36;44.73;;
50333;Laerm;36239;48.132;-1.210;2023-04-25T02:32:55;40.21;36.69;44.31;;
50333;Laerm;36239;48.132;-1.210;2023-04-25T02:35:22;40.50;35.94;46.10;;
50333;Laerm;36239;48.132;-1.210;2023-04-25T02:37:48;39.93;35.94;47.90;;
50333;Laerm;36239;48.132;-1.210;2023-04-25T02:40:14;39.62;35.94;43.72;;
50333;Laerm;36239;48.132;-1.210;2023-04-25T02:42:40;39.68;35.94;45.51;;
50333;Laerm;36239;48.132;-1.210;2023-04-25T02:45:06;39.48;35.36;44.39;;
50333;Laerm;36239;48.132;-1.210;2023-04-25T02:47:32;40.11;36.20;45.54;;
50333;Laerm;36239;48.132;-1.210;2023-04-25T02:49:58;38.85;35.36;44.43;;
50333;Laerm;36239;48.132;-1.210;2023-04-25T02:52:24;39.13;34.31;43.19;;
50333;Laerm;36239;48.132;-1.210;2023-04-25T02:54:51;38.95;33.90;45.04;;
50333;Laerm;36239;48.132;-1.210;2023-04-25T02:57:17;38.75;33.90;45.11;;
50333;Laerm;36239;48.132;-1.210;2023-04-25T02:59:43;38.19;33.90;45.72;;
50333;Laerm;36239;48.132;-1.210;2023-04-25T03:02:09;39.38;35.66;45.14;;
50333;Laerm;36239;48.132;-1.210;2023-04-25T03:04:35;39.63;35.36;43.99;;
50333;Laerm;36239;48.132;-1.210;2023-04-25T03:07:01;39.24;35.36;43.09;;
50333;Laerm;36239;48.132;-1.210;2023-04-25T03:09:27;38.99;35.36;43.44;;
50333;Laerm;36239;48.132;-1.210;2023-04-25T03:11:53;40.34;35.94;45.83;;
50333;Laerm;36239;48.132;-1.210;2023-04-25T03:14:19;41.21;36.69;45.51;;
50333;Laerm;36239;48.132;-1.210;2023-04-25T03:16:45;41.98;37.70;51.19;;
50333;Laerm;36239;48.132;-1.210;2023-04-25T03:19:11;40.83;36.91;45.45;;
50333;Laerm;36239;48.132;-1.210;2023-04-25T03:21:37;41.42;37.12;48.26;;
50333;Laerm;36239;48.132;-1.210;2023-04-25T03:24:04;40.23;35.94;44.39;;
50333;Laerm;36239;48.132;-1.210;2023-04-25T03:26:30;41.15;37.32;48.76;;
50333;Laerm;36239;48.132;-1.210;2023-04-25T03:28:56;40.59;37.12;47.10;;
50333;Laerm;36239;48.132;-1.210;2023-04-25T03:31:22;41.12;37.32;44.54;;
50333;Laerm;36239;48.132;-1.210;2023-04-25T03:33:48;41.90;37.88;46.80;;
50333;Laerm;36239;48.132;-1.210;2023-04-25T03:36:14;40.29;36.69;52.42;;
50333;Laerm;36239;48.132;-1.210;2023-04-25T03:38:40;41.11;37.32;45.39;;
50333;Laerm;36239;48.132;-1.210;2023-04-25T03:41:07;46.25;38.21;62.63;;
50333;Laerm;36239;48.132;-1.210;2023-04-25T03:43:33;47.30;36.91;63.57;;
50333;Laerm;36239;48.132;-1.210;2023-04-25T03:45:59;41.10;37.52;48.87;;
50333;Laerm;36239;48.132;-1.210;2023-04-25T03:48:26;40.34;35.94;43.49;;
50333;Laerm;36239;48.132;-1.210;2023-04-25T03:50:52;40.95;37.52;44.90;;
50333;Laerm;36239;48.132;-1.210;2023-04-25T03:53:18;50.38;36.91;68.23;;
50333;Laerm;36239;48.132;-1.210;2023-04-25T03:55:44;40.92;37.12;44.47;;
50333;Laerm;36239;48.132;-1.210;2023-04-25T03:58:10;39.36;34.69;43.29;;
50333;Laerm;36239;48.132;-1.210;2023-04-25T04:00:36;39.75;36.20;44.73;;
50333;Laerm;36239;48.132;-1.210;2023-04-25T04:03:02;40.70;36.45;49.91;;
50333;Laerm;36239;48.132;-1.210;2023-04-25T04:05:28;41.16;36.91;53.17;;
50333;Laerm;36239;48.132;-1.210;2023-04-25T04:07:54;40.98;36.45;50.94;;
50333;Laerm;36239;48.132;-1.210;2023-04-25T04:10:21;42.79;37.12;51.97;;
50333;Laerm;36239;48.132;-1.210;2023-04-25T04:12:47;43.88;37.52;53.60;;
50333;Laerm;36239;48.132;-1.210;2023-04-25T04:15:13;43.57;37.88;54.25;;
50333;Laerm;36239;48.132;-1.210;2023-04-25T04:17:39;43.80;38.99;53.83;;
50333;Laerm;36239;48.132;-1.210;2023-04-25T04:20:06;46.82;37.88;64.23;;
50333;Laerm;36239;48.132;-1.210;2023-04-25T04:22:33;54.59;38.52;69.18;;
50333;Laerm;36239;48.132;-1.210;2023-04-25T04:24:59;55.52;38.21;83.01;;
50333;Laerm;36239;48.132;-1.210;2023-04-25T04:27:25;42.54;37.70;52.03;;
50333;Laerm;36239;48.132;-1.210;2023-04-25T04:29:51;42.35;37.70;52.24;;
50333;Laerm;36239;48.132;-1.210;2023-04-25T04:32:18;41.84;37.70;51.16;;
50333;Laerm;36239;48.132;-1.210;2023-04-25T04:34:44;42.28;37.52;50.75;;
50333;Laerm;36239;48.132;-1.210;2023-04-25T04:37:13;42.38;38.67;51.70;;
50333;Laerm;36239;48.132;-1.210;2023-04-25T04:39:39;42.08;38.21;54.33;;
50333;Laerm;36239;48.132;-1.210;2023-04-25T04:42:05;44.47;38.81;58.27;;
50333;Laerm;36239;48.132;-1.210;2023-04-25T04:44:31;46.99;38.95;59.38;;
50333;Laerm;36239;48.132;-1.210;2023-04-25T04:46:58;47.17;37.88;60.19;;
50333;Laerm;36239;48.132;-1.210;2023-04-25T04:49:24;46.48;37.88;56.68;;
50333;Laerm;36239;48.132;-1.210;2023-04-25T04:51:50;43.65;37.70;55.24;;
50333;Laerm;36239;48.132;-1.210;2023-04-25T04:54:16;43.04;37.70;55.35;;
50333;Laerm;36239;48.132;-1.210;2023-04-25T04:56:42;43.05;38.05;55.62;;
50333;Laerm;36239;48.132;-1.210;2023-04-25T04:59:09;43.76;38.21;57.73;;
50333;Laerm;36239;48.132;-1.210;2023-04-25T05:01:36;45.48;38.81;57.80;;
50333;Laerm;36239;48.132;-1.210;2023-04-25T05:04:02;45.64;37.32;57.24;;
50333;Laerm;36239;48.132;-1.210;2023-04-25T05:06:29;46.95;38.21;63.43;;
50333;Laerm;36239;48.132;-1.210;2023-04-25T05:08:55;49.60;38.21;65.98;;
50333;Laerm;36239;48.132;-1.210;2023-04-25T05:11:22;53.44;38.37;68.92;;
50333;Laerm;36239;48.132;-1.210;2023-04-25T05:13:52;42.61;38.52;55.46;;
50333;Laerm;36239;48.132;-1.210;2023-04-25T05:16:18;42.14;37.52;51.01;;
50333;Laerm;36239;48.132;-1.210;2023-04-25T05:18:44;42.91;37.32;54.25;;
50333;Laerm;36239;48.132;-1.210;2023-04-25T05:21:10;42.87;38.05;53.62;;
50333;Laerm;36239;48.132;-1.210;2023-04-25T05:23:36;44.86;39.92;66.64;;
50333;Laerm;36239;48.132;-1.210;2023-04-25T05:26:02;53.36;39.08;78.93;;
50333;Laerm;36239;48.132;-1.210;2023-04-25T05:28:28;44.66;39.21;60.94;;
50333;Laerm;36239;48.132;-1.210;2023-04-25T05:30:54;43.41;38.81;54.83;;
50333;Laerm;36239;48.132;-1.210;2023-04-25T05:33:20;43.37;39.21;56.21;;
50333;Laerm;36239;48.132;-1.210;2023-04-25T05:35:46;43.18;38.95;56.98;;
50333;Laerm;36239;48.132;-1.210;2023-04-25T05:38:12;45.52;39.46;61.52;;
50333;Laerm;36239;48.132;-1.210;2023-04-25T05:40:38;45.56;39.08;62.16;;
50333;Laerm;36239;48.132;-1.210;2023-04-25T05:43:04;44.24;39.21;59.11;;
50333;Laerm;36239;48.132;-1.210;2023-04-25T05:45:30;44.68;38.67;60.53;;
50333;Laerm;36239;48.132;-1.210;2023-04-25T05:47:56;44.01;39.57;61.30;;
50333;Laerm;36239;48.132;-1.210;2023-04-25T05:50:22;43.77;39.08;58.82;;
50333;Laerm;36239;48.132;-1.210;2023-04-25T05:52:48;47.71;39.08;66.34;;
50333;Laerm;36239;48.132;-1.210;2023-04-25T05:55:14;41.82;38.67;51.89;;
50333;Laerm;36239;48.132;-1.210;2023-04-25T05:57:41;43.71;38.37;61.85;;
50333;Laerm;36239;48.132;-1.210;2023-04-25T06:00:08;42.07;38.37;51.09;;
50333;Laerm;36239;48.132;-1.210;2023-04-25T06:02:35;42.17;38.21;53.82;;
50333;Laerm;36239;48.132;-1.210;2023-04-25T06:05:01;42.57;37.70;55.52;;
50333;Laerm;36239;48.132;-1.210;2023-04-25T06:07:29;41.33;37.88;52.60;;
50333;Laerm;36239;48.132;-1.210;2023-04-25T06:09:55;45.79;38.21;59.57;;
50333;Laerm;36239;48.132;-1.210;2023-04-25T06:12:21;42.29;38.67;56.69;;
50333;Laerm;36239;48.132;-1.210;2023-04-25T06:14:47;41.47;37.52;54.96;;
50333;Laerm;36239;48.132;-1.210;2023-04-25T06:17:13;42.65;38.21;53.35;;
50333;Laerm;36239;48.132;-1.210;2023-04-25T06:19:40;43.57;38.37;58.94;;
50333;Laerm;36239;48.132;-1.210;2023-04-25T06:22:06;41.87;38.21;54.00;;
50333;Laerm;36239;48.132;-1.210;2023-04-25T06:24:33;42.35;38.21;52.44;;
50333;Laerm;36239;48.132;-1.210;2023-04-25T06:26:59;44.47;37.70;59.27;;
50333;Laerm;36239;48.132;-1.210;2023-04-25T06:29:25;43.42;37.32;56.71;;
50333;Laerm;36239;48.132;-1.210;2023-04-25T06:31:52;42.65;36.20;58.70;;
50333;Laerm;36239;48.132;-1.210;2023-04-25T06:34:18;43.30;37.52;53.45;;
50333;Laerm;36239;48.132;-1.210;2023-04-25T06:36:44;43.58;37.70;67.06;;
50333;Laerm;36239;48.132;-1.210;2023-04-25T06:39:10;47.25;38.05;62.47;;
50333;Laerm;36239;48.132;-1.210;2023-04-25T06:41:36;43.56;37.87;54.38;;
50333;Laerm;36239;48.132;-1.210;2023-04-25T06:44:02;44.16;38.05;64.41;;
50333;Laerm;36239;48.132;-1.210;2023-04-25T06:46:28;43.82;37.87;62.99;;
50333;Laerm;36239;48.132;-1.210;2023-04-25T06:48:54;43.53;37.52;63.00;;
50333;Laerm;36239;48.132;-1.210;2023-04-25T06:51:21;42.30;36.45;53.75;;
50333;Laerm;36239;48.132;-1.210;2023-04-25T06:53:47;44.69;35.94;66.95;;
50333;Laerm;36239;48.132;-1.210;2023-04-25T06:56:13;45.96;37.35;62.29;;
50333;Laerm;36239;48.132;-1.210;2023-04-25T06:58:39;43.15;36.69;55.80;;
50333;Laerm;36239;48.132;-1.210;2023-04-25T07:01:05;41.94;36.20;57.42;;
50333;Laerm;36239;48.132;-1.210;2023-04-25T07:03:31;47.01;36.20;64.30;;
50333;Laerm;36239;48.132;-1.210;2023-04-25T07:05:57;42.96;36.20;63.63;;
50333;Laerm;36239;48.132;-1.210;2023-04-25T07:08:23;39.90;35.04;46.20;;
50333;Laerm;36239;48.132;-1.210;2023-04-25T07:10:49;39.64;34.69;46.18;;
50333;Laerm;36239;48.132;-1.210;2023-04-25T07:13:16;46.42;36.10;68.90;;
50333;Laerm;36239;48.132;-1.210;2023-04-25T07:15:42;40.63;35.94;46.71;;
50333;Laerm;36239;48.132;-1.210;2023-04-25T07:18:09;45.42;34.31;68.41;;
50333;Laerm;36239;48.132;-1.210;2023-04-25T07:20:35;42.70;35.66;62.37;;
50333;Laerm;36239;48.132;-1.210;2023-04-25T07:23:01;43.06;35.36;65.46;;
50333;Laerm;36239;48.132;-1.210;2023-04-25T07:25:27;42.85;36.20;52.70;;
50333;Laerm;36239;48.132;-1.210;2023-04-25T07:27:53;47.57;36.20;65.44;;
50333;Laerm;36239;48.132;-1.210;2023-04-25T07:30:19;48.57;35.66;75.02;;
50333;Laerm;36239;48.132;-1.210;2023-04-25T07:32:45;43.65;35.66;65.28;;
50333;Laerm;36239;48.132;-1.210;2023-04-25T07:35:11;45.37;36.69;61.17;;
50333;Laerm;36239;48.132;-1.210;2023-04-25T07:37:37;41.76;35.36;55.33;;
50333;Laerm;36239;48.132;-1.210;2023-04-25T07:40:03;42.23;33.90;58.25;;
50333;Laerm;36239;48.132;-1.210;2023-04-25T07:42:30;45.06;34.31;69.01;;
50333;Laerm;36239;48.132;-1.210;2023-04-25T07:44:56;42.41;34.69;66.80;;
50333;Laerm;36239;48.132;-1.210;2023-04-25T07:47:22;39.59;35.36;53.29;;
50333;Laerm;36239;48.132;-1.210;2023-04-25T07:49:48;42.82;36.20;57.02;;
50333;Laerm;36239;48.132;-1.210;2023-04-25T07:52:14;45.64;36.91;55.65;;
50333;Laerm;36239;48.132;-1.210;2023-04-25T07:54:40;42.29;35.04;57.84;;
50333;Laerm;36239;48.132;-1.210;2023-04-25T07:57:06;44.02;35.04;67.48;;
50333;Laerm;36239;48.132;-1.210;2023-04-25T07:59:32;42.75;35.36;61.65;;
50333;Laerm;36239;48.132;-1.210;2023-04-25T08:01:58;40.08;35.66;57.17;;
50333;Laerm;36239;48.132;-1.210;2023-04-25T08:04:24;46.43;35.04;68.61;;
50333;Laerm;36239;48.132;-1.210;2023-04-25T08:06:51;41.32;36.20;54.05;;
50333;Laerm;36239;48.132;-1.210;2023-04-25T08:09:18;40.41;35.94;52.16;;
50333;Laerm;36239;48.132;-1.210;2023-04-25T08:11:44;41.00;36.69;63.30;;
50333;Laerm;36239;48.132;-1.210;2023-04-25T08:14:10;53.18;35.04;81.10;;
50333;Laerm;36239;48.132;-1.210;2023-04-25T08:16:37;47.71;35.94;74.44;;
50333;Laerm;36239;48.132;-1.210;2023-04-25T08:19:03;42.03;36.34;56.45;;
50333;Laerm;36239;48.132;-1.210;2023-04-25T08:21:29;42.15;36.45;54.72;;
50333;Laerm;36239;48.132;-1.210;2023-04-25T08:23:55;48.98;36.91;69.61;;
50333;Laerm;36239;48.132;-1.210;2023-04-25T08:26:21;43.73;37.70;64.98;;
50333;Laerm;36239;48.132;-1.210;2023-04-25T08:28:47;41.86;35.36;58.46;;
50333;Laerm;36239;48.132;-1.210;2023-04-25T08:31:13;49.90;36.69;75.94;;
50333;Laerm;36239;48.132;-1.210;2023-04-25T08:33:39;52.48;36.45;69.09;;
50333;Laerm;36239;48.132;-1.210;2023-04-25T08:36:05;43.48;36.20;62.98;;
50333;Laerm;36239;48.132;-1.210;2023-04-25T08:38:31;45.37;36.45;71.10;;
50333;Laerm;36239;48.132;-1.210;2023-04-25T08:40:57;42.20;37.32;55.75;;
50333;Laerm;36239;48.132;-1.210;2023-04-25T08:43:25;41.00;35.04;57.48;;
50333;Laerm;36239;48.132;-1.210;2023-04-25T08:45:51;40.82;36.69;56.26;;
50333;Laerm;36239;48.132;-1.210;2023-04-25T08:48:19;46.09;35.04;65.76;;
50333;Laerm;36239;48.132;-1.210;2023-04-25T08:50:49;41.11;36.91;48.25;;
50333;Laerm;36239;48.132;-1.210;2023-04-25T08:53:17;41.40;34.31;64.49;;
50333;Laerm;36239;48.132;-1.210;2023-04-25T08:55:45;46.63;36.45;64.13;;
50333;Laerm;36239;48.132;-1.210;2023-04-25T08:58:12;43.78;37.32;60.39;;
50333;Laerm;36239;48.132;-1.210;2023-04-25T09:00:38;42.00;35.66;56.33;;
50333;Laerm;36239;48.132;-1.210;2023-04-25T09:03:05;42.82;35.04;63.15;;
50333;Laerm;36239;48.132;-1.210;2023-04-25T09:05:32;42.40;35.31;63.75;;
50333;Laerm;36239;48.132;-1.210;2023-04-25T09:07:58;44.72;36.45;64.33;;
50333;Laerm;36239;48.132;-1.210;2023-04-25T09:10:24;42.25;35.04;71.52;;
50333;Laerm;36239;48.132;-1.210;2023-04-25T09:13:09;40.63;35.94;49.80;;
50333;Laerm;36239;48.132;-1.210;2023-04-25T09:15:53;41.52;35.04;55.96;;
50333;Laerm;36239;48.132;-1.210;2023-04-25T09:18:29;46.89;35.66;68.62;;
50333;Laerm;36239;48.132;-1.210;2023-04-25T09:20:56;40.32;35.04;52.28;;
50333;Laerm;36239;48.132;-1.210;2023-04-25T09:23:22;49.40;34.31;76.00;;
50333;Laerm;36239;48.132;-1.210;2023-04-25T09:25:49;42.20;35.94;65.89;;
50333;Laerm;36239;48.132;-1.210;2023-04-25T09:28:16;48.80;34.31;75.23;;
50333;Laerm;36239;48.132;-1.210;2023-04-25T09:30:48;47.67;33.90;72.15;;
50333;Laerm;36239;48.132;-1.210;2023-04-25T09:33:14;51.33;35.04;77.99;;
50333;Laerm;36239;48.132;-1.210;2023-04-25T09:35:41;40.74;36.69;54.51;;
50333;Laerm;36239;48.132;-1.210;2023-04-25T09:38:11;44.73;36.91;63.39;;
50333;Laerm;36239;48.132;-1.210;2023-04-25T09:40:42;44.67;36.20;65.29;;
50333;Laerm;36239;48.132;-1.210;2023-04-25T09:43:09;45.62;35.94;68.61;;
50333;Laerm;36239;48.132;-1.210;2023-04-25T09:45:40;46.03;35.66;73.13;;
50333;Laerm;36239;48.132;-1.210;2023-04-25T09:48:07;48.98;36.20;64.95;;
50333;Laerm;36239;48.132;-1.210;2023-04-25T09:50:33;40.70;36.20;48.08;;
50333;Laerm;36239;48.132;-1.210;2023-04-25T09:53:03;40.40;34.31;49.80;;
50333;Laerm;36239;48.132;-1.210;2023-04-25T09:55:29;44.31;36.10;72.72;;
50333;Laerm;36239;48.132;-1.210;2023-04-25T09:57:57;44.06;37.12;55.03;;
50333;Laerm;36239;48.132;-1.210;2023-04-25T10:00:26;43.47;37.52;57.59;;
50333;Laerm;36239;48.132;-1.210;2023-04-25T10:02:52;43.72;38.05;66.02;;
50333;Laerm;36239;48.132;-1.210;2023-04-25T10:05:20;42.71;36.69;63.58;;
50333;Laerm;36239;48.132;-1.210;2023-04-25T10:07:47;43.58;36.69;62.82;;
50333;Laerm;36239;48.132;-1.210;2023-04-25T10:10:13;42.39;35.04;54.76;;
50333;Laerm;36239;48.132;-1.210;2023-04-25T10:12:39;57.34;35.94;83.41;;
50333;Laerm;36239;48.132;-1.210;2023-04-25T10:15:06;54.43;36.91;82.49;;
50333;Laerm;36239;48.132;-1.210;2023-04-25T10:17:33;42.25;36.20;62.45;;
50333;Laerm;36239;48.132;-1.210;2023-04-25T10:20:01;42.72;35.66;63.41;;
50333;Laerm;36239;48.132;-1.210;2023-04-25T10:22:37;57.50;35.36;79.70;;
50333;Laerm;36239;48.132;-1.210;2023-04-25T10:25:04;45.37;35.94;70.49;;
50333;Laerm;36239;48.132;-1.210;2023-04-25T10:27:30;53.99;35.66;77.68;;
50333;Laerm;36239;48.132;-1.210;2023-04-25T10:30:03;39.88;35.04;59.76;;
50333;Laerm;36239;48.132;-1.210;2023-04-25T10:32:30;40.39;35.94;52.38;;
50333;Laerm;36239;48.132;-1.210;2023-04-25T10:34:57;42.68;36.45;58.34;;
50333;Laerm;36239;48.132;-1.210;2023-04-25T10:37:23;39.84;35.36;51.21;;
50333;Laerm;36239;48.132;-1.210;2023-04-25T10:39:49;40.13;35.04;52.90;;
50333;Laerm;36239;48.132;-1.210;2023-04-25T10:42:15;40.91;36.20;55.77;;
50333;Laerm;36239;48.132;-1.210;2023-04-25T10:44:47;40.81;36.69;56.84;;
50333;Laerm;36239;48.132;-1.210;2023-04-25T10:47:34;46.50;35.36;70.69;;
50333;Laerm;36239;48.132;-1.210;2023-04-25T10:50:04;40.66;35.66;59.83;;
50333;Laerm;36239;48.132;-1.210;2023-04-25T10:52:30;60.24;35.66;90.12;;
50333;Laerm;36239;48.132;-1.210;2023-04-25T10:54:58;40.69;35.66;55.20;;
50333;Laerm;36239;48.132;-1.210;2023-04-25T10:57:43;42.38;36.20;57.23;;
50333;Laerm;36239;48.132;-1.210;2023-04-25T11:00:14;42.59;33.44;62.69;;
50333;Laerm;36239;48.132;-1.210;2023-04-25T11:05:15;41.27;35.66;62.03;;
50333;Laerm;36239;48.132;-1.210;2023-04-25T11:07:52;42.90;36.10;55.28;;
50333;Laerm;36239;48.132;-1.210;2023-04-25T11:10:19;41.93;35.94;49.20;;
50333;Laerm;36239;48.132;-1.210;2023-04-25T11:12:46;43.18;33.90;66.43;;
50333;Laerm;36239;48.132;-1.210;2023-04-25T11:15:13;62.81;36.45;86.46;;
50333;Laerm;36239;48.132;-1.210;2023-04-25T11:17:39;42.03;36.45;57.72;;
50333;Laerm;36239;48.132;-1.210;2023-04-25T11:20:07;42.44;35.94;53.17;;
50333;Laerm;36239;48.132;-1.210;2023-04-25T11:22:37;51.47;37.12;76.37;;
50333;Laerm;36239;48.132;-1.210;2023-04-25T11:25:04;41.77;36.20;67.25;;
50333;Laerm;36239;48.132;-1.210;2023-04-25T11:27:31;42.14;35.66;57.73;;
50333;Laerm;36239;48.132;-1.210;2023-04-25T11:29:57;43.63;36.45;65.42;;
50333;Laerm;36239;48.132;-1.210;2023-04-25T11:32:23;50.70;36.91;75.28;;
50333;Laerm;36239;48.132;-1.210;2023-04-25T11:34:49;48.45;36.20;75.48;;
50333;Laerm;36239;48.132;-1.210;2023-04-25T11:37:15;41.20;36.20;62.36;;
50333;Laerm;36239;48.132;-1.210;2023-04-25T11:39:45;41.76;36.45;60.36;;
50333;Laerm;36239;48.132;-1.210;2023-04-25T11:42:13;40.95;36.20;60.31;;
50333;Laerm;36239;48.132;-1.210;2023-04-25T11:44:39;44.14;35.66;58.31;;
50333;Laerm;36239;48.132;-1.210;2023-04-25T11:47:06;42.24;37.52;63.16;;
50333;Laerm;36239;48.132;-1.210;2023-04-25T11:49:32;44.22;36.20;67.62;;
50333;Laerm;36239;48.132;-1.210;2023-04-25T11:51:58;53.83;35.66;81.54;;
50333;Laerm;36239;48.132;-1.210;2023-04-25T11:54:24;41.41;35.66;60.59;;
50333;Laerm;36239;48.132;-1.210;2023-04-25T11:56:50;43.59;35.94;64.08;;
50333;Laerm;36239;48.132;-1.210;2023-04-25T11:59:16;55.42;36.20;78.36;;
50333;Laerm;36239;48.132;-1.210;2023-04-25T12:01:47;48.41;36.20;68.66;;
50333;Laerm;36239;48.132;-1.210;2023-04-25T12:06:40;59.68;35.94;87.02;;
50333;Laerm;36239;48.132;-1.210;2023-04-25T12:09:10;42.21;36.20;61.96;;
50333;Laerm;36239;48.132;-1.210;2023-04-25T12:11:43;43.19;35.36;61.37;;
50333;Laerm;36239;48.132;-1.210;2023-04-25T12:14:09;44.68;35.36;74.06;;
50333;Laerm;36239;48.132;-1.210;2023-04-25T12:16:39;39.37;35.66;45.17;;
50333;Laerm;36239;48.132;-1.210;2023-04-25T12:19:06;40.70;35.04;59.15;;
50333;Laerm;36239;48.132;-1.210;2023-04-25T12:21:32;46.75;36.20;68.05;;
50333;Laerm;36239;48.132;-1.210;2023-04-25T12:29:16;43.87;36.45;61.24;;
50333;Laerm;36239;48.132;-1.210;2023-04-25T12:31:43;48.98;36.91;73.21;;
50333;Laerm;36239;48.132;-1.210;2023-04-25T12:34:09;51.98;37.32;78.17;;
50333;Laerm;36239;48.132;-1.210;2023-04-25T12:36:35;47.89;36.45;67.28;;
50333;Laerm;36239;48.132;-1.210;2023-04-25T12:39:00;42.31;36.91;60.39;;
50333;Laerm;36239;48.132;-1.210;2023-04-25T12:41:30;61.95;36.20;85.71;;
50333;Laerm;36239;48.132;-1.210;2023-04-25T12:43:56;45.26;35.36;57.64;;
50333;Laerm;36239;48.132;-1.210;2023-04-25T12:46:22;47.70;35.94;75.23;;
50333;Laerm;36239;48.132;-1.210;2023-04-25T12:48:48;40.48;35.66;57.05;;
50333;Laerm;36239;48.132;-1.210;2023-04-25T12:51:14;40.58;35.94;56.41;;
50333;Laerm;36239;48.132;-1.210;2023-04-25T12:53:41;54.72;36.45;82.98;;
50333;Laerm;36239;48.132;-1.210;2023-04-25T12:56:07;45.50;36.45;69.74;;
50333;Laerm;36239;48.132;-1.210;2023-04-25T12:58:33;43.15;36.45;59.19;;
50333;Laerm;36239;48.132;-1.210;2023-04-25T13:01:00;44.63;36.91;61.01;;
50333;Laerm;36239;48.132;-1.210;2023-04-25T13:03:26;42.00;36.98;54.66;;
50333;Laerm;36239;48.132;-1.210;2023-04-25T13:05:52;41.90;37.88;59.27;;
50333;Laerm;36239;48.132;-1.210;2023-04-25T13:08:18;41.84;36.91;55.81;;
50333;Laerm;36239;48.132;-1.210;2023-04-25T13:10:45;43.12;36.20;64.77;;
50333;Laerm;36239;48.132;-1.210;2023-04-25T13:13:11;48.77;36.20;76.63;;
50333;Laerm;36239;48.132;-1.210;2023-04-25T13:15:37;45.88;35.94;70.91;;
50333;Laerm;36239;48.132;-1.210;2023-04-25T13:18:03;43.72;35.94;65.24;;
50333;Laerm;36239;48.132;-1.210;2023-04-25T13:20:31;43.54;35.36;59.78;;
50333;Laerm;36239;48.132;-1.210;2023-04-25T13:22:57;40.54;32.93;56.58;;
50333;Laerm;36239;48.132;-1.210;2023-04-25T13:25:23;40.94;34.69;56.91;;
50333;Laerm;36239;48.132;-1.210;2023-04-25T13:27:49;39.52;35.59;50.32;;
50333;Laerm;36239;48.132;-1.210;2023-04-25T13:30:15;48.40;35.04;72.94;;
50333;Laerm;36239;48.132;-1.210;2023-04-25T13:32:41;40.70;34.34;59.14;;
50333;Laerm;36239;48.132;-1.210;2023-04-25T13:35:08;45.00;35.04;67.53;;
50333;Laerm;36239;48.132;-1.210;2023-04-25T13:37:35;42.90;35.04;59.48;;
50333;Laerm;36239;48.132;-1.210;2023-04-25T13:40:02;41.83;36.20;56.78;;